sensor_id;sensor_type;location;lat;lon;timestamp;P1;durP1;ratioP1;P2;durP2;ratioP2
24337;SDS011;12457;50.832;4.346;2023-04-24T00:01:24;29.52;;;14.02;;
24337;SDS011;12457;50.832;4.346;2023-04-24T00:03:50;26.00;;;14.70;;
24337;SDS011;12457;50.832;4.346;2023-04-24T00:06:16;28.05;;;13.63;;
24337;SDS011;12457;50.832;4.346;2023-04-24T00:08:42;26.48;;;13.27;;
24337;SDS011;12457;50.832;4.346;2023-04-24T00:11:08;32.15;;;14.23;;
24337;SDS011;12457;50.832;4.346;2023-04-24T00:13:34;29.52;;;13.95;;
24337;SDS011;12457;50.832;4.346;2023-04-24T00:16:00;26.95;;;14.55;;
24337;SDS011;12457;50.832;4.346;2023-04-24T00:18:26;23.90;;;14.40;;
24337;SDS011;12457;50.832;4.346;2023-04-24T00:20:53;29.48;;;14.63;;
24337;SDS011;12457;50.832;4.346;2023-04-24T00:23:19;25.38;;;15.00;;
24337;SDS011;12457;50.832;4.346;2023-04-24T00:25:44;30.42;;;14.45;;
24337;SDS011;12457;50.832;4.346;2023-04-24T00:28:10;25.65;;;14.45;;
24337;SDS011;12457;50.832;4.346;2023-04-24T00:30:36;28.98;;;14.50;;
24337;SDS011;12457;50.832;4.346;2023-04-24T00:33:01;30.40;;;14.80;;
24337;SDS011;12457;50.832;4.346;2023-04-24T00:35:27;28.80;;;13.73;;
24337;SDS011;12457;50.832;4.346;2023-04-24T00:37:53;24.52;;;15.05;;
24337;SDS011;12457;50.832;4.346;2023-04-24T00:40:19;24.45;;;13.98;;
24337;SDS011;12457;50.832;4.346;2023-04-24T00:42:45;27.65;;;14.32;;
24337;SDS011;12457;50.832;4.346;2023-04-24T00:45:11;27.77;;;15.40;;
24337;SDS011;12457;50.832;4.346;2023-04-24T00:47:38;40.95;;;16.83;;
24337;SDS011;12457;50.832;4.346;2023-04-24T00:50:04;28.95;;;14.15;;
24337;SDS011;12457;50.832;4.346;2023-04-24T00:52:31;28.95;;;14.88;;
24337;SDS011;12457;50.832;4.346;2023-04-24T00:54:57;36.45;;;15.85;;
24337;SDS011;12457;50.832;4.346;2023-04-24T00:57:23;34.30;;;15.30;;
24337;SDS011;12457;50.832;4.346;2023-04-24T00:59:51;32.38;;;15.57;;
24337;SDS011;12457;50.832;4.346;2023-04-24T01:02:18;28.77;;;14.90;;
24337;SDS011;12457;50.832;4.346;2023-04-24T01:04:45;31.33;;;15.57;;
24337;SDS011;12457;50.832;4.346;2023-04-24T01:07:11;28.83;;;15.27;;
24337;SDS011;12457;50.832;4.346;2023-04-24T01:09:40;31.35;;;15.13;;
24337;SDS011;12457;50.832;4.346;2023-04-24T01:12:10;33.20;;;15.77;;
24337;SDS011;12457;50.832;4.346;2023-04-24T01:14:36;25.60;;;15.88;;
24337;SDS011;12457;50.832;4.346;2023-04-24T01:17:02;25.77;;;14.88;;
24337;SDS011;12457;50.832;4.346;2023-04-24T01:19:28;30.60;;;16.13;;
24337;SDS011;12457;50.832;4.346;2023-04-24T01:21:53;28.20;;;15.38;;
24337;SDS011;12457;50.832;4.346;2023-04-24T01:24:23;27.63;;;15.80;;
24337;SDS011;12457;50.832;4.346;2023-04-24T01:26:51;26.58;;;15.27;;
24337;SDS011;12457;50.832;4.346;2023-04-24T01:29:16;29.88;;;15.98;;
24337;SDS011;12457;50.832;4.346;2023-04-24T01:31:42;26.40;;;15.27;;
24337;SDS011;12457;50.832;4.346;2023-04-24T01:34:08;25.77;;;14.40;;
24337;SDS011;12457;50.832;4.346;2023-04-24T01:36:34;29.88;;;14.13;;
24337;SDS011;12457;50.832;4.346;2023-04-24T01:39:00;28.17;;;13.82;;
24337;SDS011;12457;50.832;4.346;2023-04-24T01:41:26;27.80;;;13.85;;
24337;SDS011;12457;50.832;4.346;2023-04-24T01:43:52;25.15;;;13.07;;
24337;SDS011;12457;50.832;4.346;2023-04-24T01:46:18;28.67;;;14.05;;
24337;SDS011;12457;50.832;4.346;2023-04-24T01:48:45;26.42;;;14.52;;
24337;SDS011;12457;50.832;4.346;2023-04-24T01:51:11;27.90;;;14.30;;
24337;SDS011;12457;50.832;4.346;2023-04-24T01:53:36;28.48;;;16.40;;
24337;SDS011;12457;50.832;4.346;2023-04-24T01:56:02;32.95;;;15.90;;
24337;SDS011;12457;50.832;4.346;2023-04-24T01:58:28;24.55;;;15.68;;
24337;SDS011;12457;50.832;4.346;2023-04-24T02:00:56;29.52;;;14.80;;
24337;SDS011;12457;50.832;4.346;2023-04-24T02:03:24;25.77;;;15.43;;
24337;SDS011;12457;50.832;4.346;2023-04-24T02:05:51;28.08;;;15.98;;
24337;SDS011;12457;50.832;4.346;2023-04-24T02:08:16;26.70;;;15.48;;
24337;SDS011;12457;50.832;4.346;2023-04-24T02:10:42;33.97;;;17.17;;
24337;SDS011;12457;50.832;4.346;2023-04-24T02:13:27;28.70;;;17.20;;
24337;SDS011;12457;50.832;4.346;2023-04-24T02:15:53;25.98;;;17.02;;
24337;SDS011;12457;50.832;4.346;2023-04-24T02:18:19;27.83;;;17.50;;
24337;SDS011;12457;50.832;4.346;2023-04-24T02:20:45;40.67;;;17.88;;
24337;SDS011;12457;50.832;4.346;2023-04-24T02:23:11;32.03;;;18.55;;
24337;SDS011;12457;50.832;4.346;2023-04-24T02:25:38;35.75;;;18.10;;
24337;SDS011;12457;50.832;4.346;2023-04-24T02:28:04;32.85;;;18.92;;
24337;SDS011;12457;50.832;4.346;2023-04-24T02:30:29;27.92;;;18.48;;
24337;SDS011;12457;50.832;4.346;2023-04-24T02:32:55;30.70;;;19.05;;
24337;SDS011;12457;50.832;4.346;2023-04-24T02:35:21;28.17;;;17.88;;
24337;SDS011;12457;50.832;4.346;2023-04-24T02:37:47;30.75;;;17.17;;
24337;SDS011;12457;50.832;4.346;2023-04-24T02:40:12;29.00;;;17.23;;
24337;SDS011;12457;50.832;4.346;2023-04-24T02:42:38;27.90;;;16.42;;
24337;SDS011;12457;50.832;4.346;2023-04-24T02:45:05;24.38;;;15.45;;
24337;SDS011;12457;50.832;4.346;2023-04-24T02:47:31;27.30;;;15.60;;
24337;SDS011;12457;50.832;4.346;2023-04-24T02:49:56;30.45;;;15.98;;
24337;SDS011;12457;50.832;4.346;2023-04-24T02:52:22;30.95;;;15.27;;
24337;SDS011;12457;50.832;4.346;2023-04-24T02:54:48;28.13;;;15.40;;
24337;SDS011;12457;50.832;4.346;2023-04-24T02:57:13;24.75;;;16.25;;
24337;SDS011;12457;50.832;4.346;2023-04-24T02:59:40;23.60;;;15.13;;
24337;SDS011;12457;50.832;4.346;2023-04-24T03:02:05;36.15;;;15.77;;
24337;SDS011;12457;50.832;4.346;2023-04-24T03:04:31;27.65;;;14.90;;
24337;SDS011;12457;50.832;4.346;2023-04-24T03:06:57;24.13;;;14.25;;
24337;SDS011;12457;50.832;4.346;2023-04-24T03:09:22;22.23;;;14.30;;
24337;SDS011;12457;50.832;4.346;2023-04-24T03:11:49;23.63;;;14.40;;
24337;SDS011;12457;50.832;4.346;2023-04-24T03:14:15;21.50;;;13.25;;
24337;SDS011;12457;50.832;4.346;2023-04-24T03:16:41;22.90;;;13.50;;
24337;SDS011;12457;50.832;4.346;2023-04-24T03:19:07;19.92;;;12.05;;
24337;SDS011;12457;50.832;4.346;2023-04-24T03:21:33;21.17;;;12.27;;
24337;SDS011;12457;50.832;4.346;2023-04-24T03:24:00;17.50;;;11.40;;
24337;SDS011;12457;50.832;4.346;2023-04-24T03:26:26;22.15;;;12.13;;
24337;SDS011;12457;50.832;4.346;2023-04-24T03:28:52;18.25;;;11.88;;
24337;SDS011;12457;50.832;4.346;2023-04-24T03:31:17;18.13;;;11.85;;
24337;SDS011;12457;50.832;4.346;2023-04-24T03:33:44;19.88;;;11.77;;
24337;SDS011;12457;50.832;4.346;2023-04-24T03:36:09;19.65;;;11.93;;
24337;SDS011;12457;50.832;4.346;2023-04-24T03:38:36;19.05;;;12.77;;
24337;SDS011;12457;50.832;4.346;2023-04-24T03:41:01;18.83;;;12.07;;
24337;SDS011;12457;50.832;4.346;2023-04-24T03:43:27;23.73;;;13.27;;
24337;SDS011;12457;50.832;4.346;2023-04-24T03:45:53;20.50;;;12.57;;
24337;SDS011;12457;50.832;4.346;2023-04-24T03:48:18;21.73;;;13.45;;
24337;SDS011;12457;50.832;4.346;2023-04-24T03:50:45;18.60;;;12.40;;
24337;SDS011;12457;50.832;4.346;2023-04-24T03:53:10;21.48;;;12.30;;
24337;SDS011;12457;50.832;4.346;2023-04-24T03:55:36;22.40;;;12.82;;
24337;SDS011;12457;50.832;4.346;2023-04-24T03:58:02;20.83;;;12.02;;
24337;SDS011;12457;50.832;4.346;2023-04-24T04:00:28;20.38;;;11.10;;
24337;SDS011;12457;50.832;4.346;2023-04-24T04:02:56;16.23;;;10.43;;
24337;SDS011;12457;50.832;4.346;2023-04-24T04:05:22;15.07;;;11.25;;
24337;SDS011;12457;50.832;4.346;2023-04-24T04:07:48;18.10;;;9.60;;
24337;SDS011;12457;50.832;4.346;2023-04-24T04:10:14;13.07;;;9.40;;
24337;SDS011;12457;50.832;4.346;2023-04-24T04:12:44;13.13;;;9.40;;
24337;SDS011;12457;50.832;4.346;2023-04-24T04:15:10;14.02;;;8.90;;
24337;SDS011;12457;50.832;4.346;2023-04-24T04:17:36;12.35;;;9.10;;
24337;SDS011;12457;50.832;4.346;2023-04-24T04:20:03;12.95;;;8.93;;
24337;SDS011;12457;50.832;4.346;2023-04-24T04:22:33;14.30;;;8.90;;
24337;SDS011;12457;50.832;4.346;2023-04-24T04:24:59;13.77;;;9.38;;
24337;SDS011;12457;50.832;4.346;2023-04-24T04:27:25;19.73;;;9.63;;
24337;SDS011;12457;50.832;4.346;2023-04-24T04:29:54;14.85;;;10.43;;
24337;SDS011;12457;50.832;4.346;2023-04-24T04:32:21;13.45;;;8.80;;
24337;SDS011;12457;50.832;4.346;2023-04-24T04:34:47;16.52;;;9.73;;
24337;SDS011;12457;50.832;4.346;2023-04-24T04:37:14;14.00;;;9.30;;
24337;SDS011;12457;50.832;4.346;2023-04-24T04:39:40;11.50;;;8.95;;
24337;SDS011;12457;50.832;4.346;2023-04-24T04:42:06;16.17;;;9.40;;
24337;SDS011;12457;50.832;4.346;2023-04-24T04:44:31;13.48;;;8.85;;
24337;SDS011;12457;50.832;4.346;2023-04-24T04:46:57;17.27;;;9.35;;
24337;SDS011;12457;50.832;4.346;2023-04-24T04:49:25;15.45;;;9.40;;
24337;SDS011;12457;50.832;4.346;2023-04-24T04:51:53;19.33;;;10.25;;
24337;SDS011;12457;50.832;4.346;2023-04-24T04:54:19;23.00;;;11.32;;
24337;SDS011;12457;50.832;4.346;2023-04-24T04:56:44;17.60;;;11.88;;
24337;SDS011;12457;50.832;4.346;2023-04-24T04:59:10;25.27;;;13.30;;
24337;SDS011;12457;50.832;4.346;2023-04-24T05:01:37;25.58;;;14.25;;
24337;SDS011;12457;50.832;4.346;2023-04-24T05:04:03;21.67;;;12.95;;
24337;SDS011;12457;50.832;4.346;2023-04-24T05:06:28;22.27;;;13.23;;
24337;SDS011;12457;50.832;4.346;2023-04-24T05:08:55;26.95;;;13.60;;
24337;SDS011;12457;50.832;4.346;2023-04-24T05:11:22;25.38;;;13.48;;
24337;SDS011;12457;50.832;4.346;2023-04-24T05:13:48;20.15;;;14.35;;
24337;SDS011;12457;50.832;4.346;2023-04-24T05:16:13;24.73;;;14.00;;
24337;SDS011;12457;50.832;4.346;2023-04-24T05:18:39;23.50;;;13.90;;
24337;SDS011;12457;50.832;4.346;2023-04-24T05:21:05;26.23;;;14.18;;
24337;SDS011;12457;50.832;4.346;2023-04-24T05:23:31;25.35;;;14.55;;
24337;SDS011;12457;50.832;4.346;2023-04-24T05:25:57;27.33;;;14.20;;
24337;SDS011;12457;50.832;4.346;2023-04-24T05:28:22;28.33;;;15.57;;
24337;SDS011;12457;50.832;4.346;2023-04-24T05:30:48;25.80;;;15.20;;
24337;SDS011;12457;50.832;4.346;2023-04-24T05:33:14;29.55;;;15.23;;
24337;SDS011;12457;50.832;4.346;2023-04-24T05:35:40;26.52;;;15.30;;
24337;SDS011;12457;50.832;4.346;2023-04-24T05:38:11;26.25;;;14.88;;
24337;SDS011;12457;50.832;4.346;2023-04-24T05:40:37;27.67;;;14.77;;
24337;SDS011;12457;50.832;4.346;2023-04-24T05:43:03;26.70;;;15.05;;
24337;SDS011;12457;50.832;4.346;2023-04-24T05:45:29;29.27;;;16.42;;
24337;SDS011;12457;50.832;4.346;2023-04-24T05:47:56;30.48;;;15.68;;
24337;SDS011;12457;50.832;4.346;2023-04-24T05:50:22;23.90;;;15.50;;
24337;SDS011;12457;50.832;4.346;2023-04-24T05:52:48;25.27;;;15.70;;
24337;SDS011;12457;50.832;4.346;2023-04-24T05:55:13;23.73;;;14.48;;
24337;SDS011;12457;50.832;4.346;2023-04-24T05:57:42;29.23;;;15.07;;
24337;SDS011;12457;50.832;4.346;2023-04-24T06:00:17;27.58;;;15.98;;
24337;SDS011;12457;50.832;4.346;2023-04-24T06:02:44;31.40;;;16.85;;
24337;SDS011;12457;50.832;4.346;2023-04-24T06:05:11;29.75;;;17.05;;
24337;SDS011;12457;50.832;4.346;2023-04-24T06:07:37;25.83;;;15.93;;
24337;SDS011;12457;50.832;4.346;2023-04-24T06:10:03;35.72;;;18.05;;
24337;SDS011;12457;50.832;4.346;2023-04-24T06:12:29;36.50;;;17.30;;
24337;SDS011;12457;50.832;4.346;2023-04-24T06:14:55;45.13;;;17.63;;
24337;SDS011;12457;50.832;4.346;2023-04-24T06:17:21;29.58;;;16.48;;
24337;SDS011;12457;50.832;4.346;2023-04-24T06:19:46;39.05;;;17.95;;
24337;SDS011;12457;50.832;4.346;2023-04-24T06:22:12;31.48;;;17.75;;
24337;SDS011;12457;50.832;4.346;2023-04-24T06:24:41;32.67;;;17.48;;
24337;SDS011;12457;50.832;4.346;2023-04-24T06:27:06;36.50;;;18.45;;
24337;SDS011;12457;50.832;4.346;2023-04-24T06:29:33;39.15;;;18.00;;
24337;SDS011;12457;50.832;4.346;2023-04-24T06:31:58;35.33;;;17.83;;
24337;SDS011;12457;50.832;4.346;2023-04-24T06:34:24;29.35;;;16.98;;
24337;SDS011;12457;50.832;4.346;2023-04-24T06:36:50;31.73;;;17.60;;
24337;SDS011;12457;50.832;4.346;2023-04-24T06:39:16;37.67;;;17.90;;
24337;SDS011;12457;50.832;4.346;2023-04-24T06:41:42;34.30;;;17.83;;
24337;SDS011;12457;50.832;4.346;2023-04-24T06:44:07;32.33;;;18.83;;
24337;SDS011;12457;50.832;4.346;2023-04-24T06:46:34;39.92;;;19.02;;
24337;SDS011;12457;50.832;4.346;2023-04-24T06:49:00;45.83;;;20.17;;
24337;SDS011;12457;50.832;4.346;2023-04-24T06:51:26;34.00;;;19.98;;
24337;SDS011;12457;50.832;4.346;2023-04-24T06:53:53;39.00;;;20.15;;
24337;SDS011;12457;50.832;4.346;2023-04-24T06:56:19;38.85;;;20.13;;
24337;SDS011;12457;50.832;4.346;2023-04-24T06:58:45;46.95;;;21.52;;
24337;SDS011;12457;50.832;4.346;2023-04-24T07:01:11;38.85;;;21.17;;
24337;SDS011;12457;50.832;4.346;2023-04-24T07:03:37;35.88;;;20.27;;
24337;SDS011;12457;50.832;4.346;2023-04-24T07:06:03;45.05;;;20.50;;
24337;SDS011;12457;50.832;4.346;2023-04-24T07:08:30;37.60;;;18.65;;
24337;SDS011;12457;50.832;4.346;2023-04-24T07:10:56;43.75;;;19.77;;
24337;SDS011;12457;50.832;4.346;2023-04-24T07:13:22;34.00;;;18.80;;
24337;SDS011;12457;50.832;4.346;2023-04-24T07:15:48;29.70;;;19.77;;
24337;SDS011;12457;50.832;4.346;2023-04-24T07:18:15;40.88;;;19.50;;
24337;SDS011;12457;50.832;4.346;2023-04-24T07:20:42;32.55;;;18.60;;
24337;SDS011;12457;50.832;4.346;2023-04-24T07:23:08;39.45;;;18.17;;
24337;SDS011;12457;50.832;4.346;2023-04-24T07:25:33;35.50;;;17.58;;
24337;SDS011;12457;50.832;4.346;2023-04-24T07:27:59;30.33;;;17.27;;
24337;SDS011;12457;50.832;4.346;2023-04-24T07:30:25;40.45;;;18.40;;
24337;SDS011;12457;50.832;4.346;2023-04-24T07:32:53;36.22;;;16.50;;
24337;SDS011;12457;50.832;4.346;2023-04-24T07:35:20;34.80;;;17.67;;
24337;SDS011;12457;50.832;4.346;2023-04-24T07:37:47;41.63;;;16.77;;
24337;SDS011;12457;50.832;4.346;2023-04-24T07:40:13;27.63;;;16.50;;
24337;SDS011;12457;50.832;4.346;2023-04-24T07:42:39;38.55;;;17.65;;
24337;SDS011;12457;50.832;4.346;2023-04-24T07:45:06;30.13;;;16.20;;
24337;SDS011;12457;50.832;4.346;2023-04-24T07:47:32;46.75;;;18.02;;
24337;SDS011;12457;50.832;4.346;2023-04-24T07:49:59;40.28;;;18.35;;
24337;SDS011;12457;50.832;4.346;2023-04-24T07:52:25;38.40;;;17.38;;
24337;SDS011;12457;50.832;4.346;2023-04-24T07:54:51;29.98;;;16.02;;
24337;SDS011;12457;50.832;4.346;2023-04-24T07:57:23;28.92;;;14.02;;
24337;SDS011;12457;50.832;4.346;2023-04-24T07:59:49;27.73;;;14.25;;
24337;SDS011;12457;50.832;4.346;2023-04-24T08:02:15;30.83;;;13.40;;
24337;SDS011;12457;50.832;4.346;2023-04-24T08:04:41;33.25;;;14.35;;
24337;SDS011;12457;50.832;4.346;2023-04-24T08:07:07;31.05;;;12.15;;
24337;SDS011;12457;50.832;4.346;2023-04-24T08:09:33;24.67;;;12.27;;
24337;SDS011;12457;50.832;4.346;2023-04-24T08:11:59;25.45;;;11.57;;
24337;SDS011;12457;50.832;4.346;2023-04-24T08:14:24;29.80;;;11.75;;
24337;SDS011;12457;50.832;4.346;2023-04-24T08:16:51;29.58;;;11.50;;
24337;SDS011;12457;50.832;4.346;2023-04-24T08:19:19;25.40;;;10.48;;
24337;SDS011;12457;50.832;4.346;2023-04-24T08:21:44;28.20;;;10.23;;
24337;SDS011;12457;50.832;4.346;2023-04-24T08:24:10;22.50;;;9.65;;
24337;SDS011;12457;50.832;4.346;2023-04-24T08:26:36;27.90;;;9.55;;
24337;SDS011;12457;50.832;4.346;2023-04-24T08:29:01;22.08;;;9.68;;
24337;SDS011;12457;50.832;4.346;2023-04-24T08:31:27;27.83;;;9.70;;
24337;SDS011;12457;50.832;4.346;2023-04-24T08:33:53;16.35;;;8.07;;
24337;SDS011;12457;50.832;4.346;2023-04-24T08:36:19;18.35;;;7.72;;
24337;SDS011;12457;50.832;4.346;2023-04-24T08:38:45;19.33;;;8.30;;
24337;SDS011;12457;50.832;4.346;2023-04-24T08:41:11;20.27;;;7.80;;
24337;SDS011;12457;50.832;4.346;2023-04-24T08:43:40;14.98;;;7.68;;
24337;SDS011;12457;50.832;4.346;2023-04-24T08:46:07;25.60;;;8.02;;
24337;SDS011;12457;50.832;4.346;2023-04-24T08:48:33;25.95;;;8.45;;
24337;SDS011;12457;50.832;4.346;2023-04-24T08:50:59;20.38;;;7.25;;
24337;SDS011;12457;50.832;4.346;2023-04-24T08:53:27;12.80;;;6.38;;
24337;SDS011;12457;50.832;4.346;2023-04-24T08:55:53;21.58;;;7.65;;
24337;SDS011;12457;50.832;4.346;2023-04-24T08:58:20;21.45;;;6.25;;
24337;SDS011;12457;50.832;4.346;2023-04-24T09:00:47;15.23;;;5.60;;
24337;SDS011;12457;50.832;4.346;2023-04-24T09:03:15;11.32;;;6.03;;
24337;SDS011;12457;50.832;4.346;2023-04-24T09:05:46;19.70;;;6.22;;
24337;SDS011;12457;50.832;4.346;2023-04-24T09:08:13;17.13;;;6.10;;
24337;SDS011;12457;50.832;4.346;2023-04-24T09:10:40;13.68;;;5.72;;
24337;SDS011;12457;50.832;4.346;2023-04-24T09:13:06;9.70;;;5.03;;
24337;SDS011;12457;50.832;4.346;2023-04-24T09:15:51;14.18;;;5.55;;
24337;SDS011;12457;50.832;4.346;2023-04-24T09:18:17;14.00;;;5.30;;
24337;SDS011;12457;50.832;4.346;2023-04-24T09:21:00;18.80;;;5.20;;
24337;SDS011;12457;50.832;4.346;2023-04-24T09:23:30;16.92;;;5.50;;
24337;SDS011;12457;50.832;4.346;2023-04-24T09:25:57;12.65;;;5.90;;
24337;SDS011;12457;50.832;4.346;2023-04-24T09:28:35;13.80;;;5.25;;
24337;SDS011;12457;50.832;4.346;2023-04-24T09:33:34;15.77;;;6.00;;
24337;SDS011;12457;50.832;4.346;2023-04-24T09:36:01;11.23;;;5.13;;
24337;SDS011;12457;50.832;4.346;2023-04-24T09:38:31;10.70;;;4.65;;
24337;SDS011;12457;50.832;4.346;2023-04-24T09:41:07;13.88;;;4.28;;
24337;SDS011;12457;50.832;4.346;2023-04-24T09:43:38;12.32;;;4.03;;
24337;SDS011;12457;50.832;4.346;2023-04-24T09:46:04;8.63;;;4.03;;
24337;SDS011;12457;50.832;4.346;2023-04-24T09:48:32;10.45;;;3.75;;
24337;SDS011;12457;50.832;4.346;2023-04-24T09:51:00;9.43;;;4.28;;
24337;SDS011;12457;50.832;4.346;2023-04-24T09:53:28;11.65;;;4.57;;
24337;SDS011;12457;50.832;4.346;2023-04-24T09:55:55;12.80;;;4.75;;
24337;SDS011;12457;50.832;4.346;2023-04-24T09:58:28;12.23;;;4.60;;
24337;SDS011;12457;50.832;4.346;2023-04-24T10:01:00;8.73;;;4.87;;
24337;SDS011;12457;50.832;4.346;2023-04-24T10:03:31;11.18;;;4.82;;
24337;SDS011;12457;50.832;4.346;2023-04-24T10:06:01;10.40;;;4.32;;
24337;SDS011;12457;50.832;4.346;2023-04-24T10:08:33;10.25;;;4.47;;
24337;SDS011;12457;50.832;4.346;2023-04-24T10:11:00;12.15;;;4.30;;
24337;SDS011;12457;50.832;4.346;2023-04-24T10:13:26;10.52;;;4.05;;
24337;SDS011;12457;50.832;4.346;2023-04-24T10:15:53;7.82;;;3.83;;
24337;SDS011;12457;50.832;4.346;2023-04-24T10:18:22;9.38;;;4.57;;
24337;SDS011;12457;50.832;4.346;2023-04-24T10:20:49;12.52;;;4.43;;
24337;SDS011;12457;50.832;4.346;2023-04-24T10:23:15;13.57;;;4.70;;
24337;SDS011;12457;50.832;4.346;2023-04-24T10:25:44;14.45;;;5.47;;
24337;SDS011;12457;50.832;4.346;2023-04-24T10:28:10;13.50;;;4.80;;
24337;SDS011;12457;50.832;4.346;2023-04-24T10:30:39;14.70;;;5.10;;
24337;SDS011;12457;50.832;4.346;2023-04-24T10:33:08;10.23;;;5.05;;
24337;SDS011;12457;50.832;4.346;2023-04-24T10:35:34;10.68;;;5.30;;
24337;SDS011;12457;50.832;4.346;2023-04-24T10:38:12;10.85;;;5.07;;
24337;SDS011;12457;50.832;4.346;2023-04-24T10:40:39;11.38;;;4.65;;
24337;SDS011;12457;50.832;4.346;2023-04-24T10:43:05;15.90;;;5.88;;
24337;SDS011;12457;50.832;4.346;2023-04-24T10:45:33;10.05;;;5.03;;
24337;SDS011;12457;50.832;4.346;2023-04-24T10:48:05;8.68;;;4.55;;
24337;SDS011;12457;50.832;4.346;2023-04-24T10:50:45;11.80;;;4.57;;
24337;SDS011;12457;50.832;4.346;2023-04-24T10:53:30;11.83;;;5.00;;
24337;SDS011;12457;50.832;4.346;2023-04-24T10:58:22;12.15;;;5.35;;
24337;SDS011;12457;50.832;4.346;2023-04-24T11:00:58;10.63;;;4.85;;
24337;SDS011;12457;50.832;4.346;2023-04-24T11:03:31;13.10;;;5.38;;
24337;SDS011;12457;50.832;4.346;2023-04-24T11:11:12;11.82;;;5.65;;
24337;SDS011;12457;50.832;4.346;2023-04-24T11:21:39;10.00;;;4.72;;
24337;SDS011;12457;50.832;4.346;2023-04-24T11:24:24;13.48;;;4.60;;
24337;SDS011;12457;50.832;4.346;2023-04-24T11:26:59;13.70;;;5.28;;
24337;SDS011;12457;50.832;4.346;2023-04-24T11:32:39;12.75;;;5.30;;
24337;SDS011;12457;50.832;4.346;2023-04-24T11:37:38;10.13;;;4.82;;
24337;SDS011;12457;50.832;4.346;2023-04-24T11:40:05;12.95;;;5.07;;
24337;SDS011;12457;50.832;4.346;2023-04-24T11:42:33;9.95;;;4.97;;
24337;SDS011;12457;50.832;4.346;2023-04-24T11:45:00;12.65;;;5.00;;
24337;SDS011;12457;50.832;4.346;2023-04-24T11:47:27;9.20;;;5.90;;
24337;SDS011;12457;50.832;4.346;2023-04-24T11:50:00;13.93;;;6.28;;
24337;SDS011;12457;50.832;4.346;2023-04-24T11:52:28;12.27;;;7.13;;
24337;SDS011;12457;50.832;4.346;2023-04-24T11:54:59;16.98;;;6.70;;
24337;SDS011;12457;50.832;4.346;2023-04-24T11:57:25;9.13;;;5.97;;
24337;SDS011;12457;50.832;4.346;2023-04-24T11:59:58;18.00;;;6.00;;
24337;SDS011;12457;50.832;4.346;2023-04-24T12:02:25;14.13;;;5.65;;
24337;SDS011;12457;50.832;4.346;2023-04-24T12:04:52;8.48;;;5.65;;
24337;SDS011;12457;50.832;4.346;2023-04-24T12:07:19;13.25;;;5.53;;
24337;SDS011;12457;50.832;4.346;2023-04-24T12:09:47;14.88;;;5.70;;
24337;SDS011;12457;50.832;4.346;2023-04-24T12:12:15;10.38;;;5.97;;
24337;SDS011;12457;50.832;4.346;2023-04-24T12:14:47;13.23;;;6.40;;
24337;SDS011;12457;50.832;4.346;2023-04-24T12:20:08;18.55;;;5.93;;
24337;SDS011;12457;50.832;4.346;2023-04-24T12:25:14;9.20;;;5.43;;
24337;SDS011;12457;50.832;4.346;2023-04-24T12:27:41;8.05;;;5.28;;
24337;SDS011;12457;50.832;4.346;2023-04-24T12:30:13;15.35;;;6.03;;
24337;SDS011;12457;50.832;4.346;2023-04-24T12:32:45;13.27;;;6.30;;
24337;SDS011;12457;50.832;4.346;2023-04-24T12:35:12;8.15;;;5.65;;
24337;SDS011;12457;50.832;4.346;2023-04-24T12:37:41;15.93;;;6.10;;
24337;SDS011;12457;50.832;4.346;2023-04-24T12:40:08;14.10;;;5.40;;
24337;SDS011;12457;50.832;4.346;2023-04-24T12:42:36;12.18;;;5.32;;
24337;SDS011;12457;50.832;4.346;2023-04-24T12:45:08;11.68;;;5.60;;
24337;SDS011;12457;50.832;4.346;2023-04-24T12:47:37;9.02;;;4.97;;
24337;SDS011;12457;50.832;4.346;2023-04-24T12:50:06;8.07;;;4.35;;
24337;SDS011;12457;50.832;4.346;2023-04-24T12:52:36;11.50;;;5.57;;
24337;SDS011;12457;50.832;4.346;2023-04-24T12:55:02;15.60;;;4.85;;
24337;SDS011;12457;50.832;4.346;2023-04-24T12:57:29;12.32;;;3.80;;
24337;SDS011;12457;50.832;4.346;2023-04-24T12:59:56;6.30;;;4.03;;
24337;SDS011;12457;50.832;4.346;2023-04-24T13:02:32;8.95;;;4.75;;
24337;SDS011;12457;50.832;4.346;2023-04-24T13:04:59;8.18;;;4.70;;
24337;SDS011;12457;50.832;4.346;2023-04-24T13:07:26;8.77;;;4.32;;
24337;SDS011;12457;50.832;4.346;2023-04-24T13:09:52;10.77;;;5.07;;
24337;SDS011;12457;50.832;4.346;2023-04-24T13:12:19;9.00;;;4.57;;
24337;SDS011;12457;50.832;4.346;2023-04-24T13:14:45;7.45;;;3.80;;
24337;SDS011;12457;50.832;4.346;2023-04-24T13:17:11;15.75;;;5.53;;
24337;SDS011;12457;50.832;4.346;2023-04-24T13:19:41;9.68;;;3.72;;
24337;SDS011;12457;50.832;4.346;2023-04-24T13:22:09;6.95;;;3.70;;
24337;SDS011;12457;50.832;4.346;2023-04-24T13:24:37;8.02;;;3.40;;
24337;SDS011;12457;50.832;4.346;2023-04-24T13:27:05;7.85;;;3.70;;
24337;SDS011;12457;50.832;4.346;2023-04-24T13:29:31;7.65;;;3.58;;
24337;SDS011;12457;50.832;4.346;2023-04-24T13:31:57;10.55;;;3.35;;
24337;SDS011;12457;50.832;4.346;2023-04-24T13:34:23;8.48;;;3.00;;
24337;SDS011;12457;50.832;4.346;2023-04-24T13:36:53;8.70;;;3.30;;
24337;SDS011;12457;50.832;4.346;2023-04-24T13:39:22;8.32;;;3.63;;
24337;SDS011;12457;50.832;4.346;2023-04-24T13:41:48;9.77;;;3.10;;
24337;SDS011;12457;50.832;4.346;2023-04-24T13:44:14;8.57;;;3.38;;
24337;SDS011;12457;50.832;4.346;2023-04-24T13:46:41;5.63;;;2.67;;
24337;SDS011;12457;50.832;4.346;2023-04-24T13:49:08;7.00;;;3.20;;
24337;SDS011;12457;50.832;4.346;2023-04-24T13:51:35;5.65;;;2.50;;
24337;SDS011;12457;50.832;4.346;2023-04-24T13:54:01;6.20;;;3.10;;
24337;SDS011;12457;50.832;4.346;2023-04-24T13:56:26;4.63;;;2.47;;
24337;SDS011;12457;50.832;4.346;2023-04-24T13:58:52;4.85;;;2.70;;
24337;SDS011;12457;50.832;4.346;2023-04-24T14:01:19;6.47;;;2.83;;
24337;SDS011;12457;50.832;4.346;2023-04-24T14:03:45;7.68;;;2.90;;
24337;SDS011;12457;50.832;4.346;2023-04-24T14:06:11;14.43;;;2.70;;
24337;SDS011;12457;50.832;4.346;2023-04-24T14:08:38;4.82;;;2.72;;
24337;SDS011;12457;50.832;4.346;2023-04-24T14:11:04;6.70;;;2.92;;
24337;SDS011;12457;50.832;4.346;2023-04-24T14:13:30;6.40;;;2.25;;
24337;SDS011;12457;50.832;4.346;2023-04-24T14:15:56;5.68;;;3.17;;
24337;SDS011;12457;50.832;4.346;2023-04-24T14:18:22;6.15;;;2.90;;
24337;SDS011;12457;50.832;4.346;2023-04-24T14:20:48;7.13;;;3.13;;
24337;SDS011;12457;50.832;4.346;2023-04-24T14:23:14;5.05;;;2.53;;
24337;SDS011;12457;50.832;4.346;2023-04-24T14:25:41;6.50;;;2.33;;
24337;SDS011;12457;50.832;4.346;2023-04-24T14:28:07;5.50;;;2.33;;
24337;SDS011;12457;50.832;4.346;2023-04-24T14:30:32;7.22;;;2.38;;
24337;SDS011;12457;50.832;4.346;2023-04-24T14:32:58;4.88;;;2.40;;
24337;SDS011;12457;50.832;4.346;2023-04-24T14:35:24;4.90;;;2.10;;
24337;SDS011;12457;50.832;4.346;2023-04-24T14:37:49;4.35;;;2.10;;
24337;SDS011;12457;50.832;4.346;2023-04-24T14:40:16;4.40;;;2.30;;
24337;SDS011;12457;50.832;4.346;2023-04-24T14:42:41;3.15;;;1.67;;
24337;SDS011;12457;50.832;4.346;2023-04-24T14:45:07;3.42;;;2.10;;
24337;SDS011;12457;50.832;4.346;2023-04-24T14:47:33;5.85;;;2.33;;
24337;SDS011;12457;50.832;4.346;2023-04-24T14:49:59;6.50;;;2.78;;
24337;SDS011;12457;50.832;4.346;2023-04-24T14:52:25;4.95;;;2.45;;
24337;SDS011;12457;50.832;4.346;2023-04-24T14:54:51;4.65;;;2.08;;
24337;SDS011;12457;50.832;4.346;2023-04-24T14:57:16;6.68;;;2.25;;
24337;SDS011;12457;50.832;4.346;2023-04-24T14:59:42;6.28;;;3.30;;